createdAt,value
2018-05-24T00:00:36.192Z,3.30
2018-05-24T00:03:04.929Z,2.97
2018-05-24T00:05:36.159Z,3.30
2018-05-24T00:08:04.810Z,3.70
2018-05-24T00:10:33.569Z,3.03
2018-05-24T00:13:02.300Z,3.50
2018-05-24T00:15:48.493Z,3.55
2018-05-24T00:18:17.172Z,3.40
2018-05-24T00:20:45.865Z,3.58
2018-05-24T00:23:14.566Z,3.05
2018-05-24T00:25:50.629Z,3.17
2018-05-24T00:28:22.100Z,3.55
2018-05-24T00:30:52.116Z,3.20
2018-05-24T00:33:22.114Z,3.80
2018-05-24T00:35:51.947Z,3.50
2018-05-24T00:38:24.429Z,3.25
2018-05-24T00:40:53.424Z,3.58
2018-05-24T00:43:26.889Z,3.53
2018-05-24T00:45:59.687Z,3.87
2018-05-24T00:48:30.537Z,4.00
2018-05-24T00:51:00.284Z,3.90
2018-05-24T00:53:29.060Z,3.50
2018-05-24T00:56:00.688Z,4.07
2018-05-24T00:58:33.873Z,4.07
2018-05-24T01:01:02.524Z,3.90
2018-05-24T01:03:35.471Z,4.00
2018-05-24T01:06:08.063Z,4.03
2018-05-24T01:08:39.682Z,3.90
2018-05-24T01:11:12.790Z,3.92
2018-05-24T01:13:41.860Z,3.83
2018-05-24T01:16:11.422Z,4.03
2018-05-24T01:18:48.253Z,3.92
2018-05-24T01:21:17.449Z,4.12
2018-05-24T01:23:49.516Z,4.00
2018-05-24T01:26:25.696Z,4.20
2018-05-24T01:29:06.307Z,4.37
2018-05-24T01:31:44.527Z,4.35
2018-05-24T01:37:45.952Z,4.47
2018-05-24T01:40:18.810Z,4.07
2018-05-24T01:42:47.514Z,4.10
2018-05-24T01:45:16.143Z,3.95
2018-05-24T01:47:48.554Z,4.50
2018-05-24T01:50:25.741Z,4.00
2018-05-24T01:52:54.407Z,4.10
2018-05-24T01:55:42.424Z,3.92
2018-05-24T01:58:15.569Z,4.20
2018-05-24T02:00:48.634Z,4.22
2018-05-24T02:03:17.750Z,4.50
2018-05-24T02:05:49.482Z,3.90
2018-05-24T02:08:23.556Z,4.25
2018-05-24T02:10:49.315Z,3.85
2018-05-24T02:13:18.003Z,4.50
2018-05-24T02:15:49.485Z,4.25
2018-05-24T02:18:18.513Z,4.15
2018-05-24T02:20:47.759Z,4.50
2018-05-24T02:23:19.108Z,4.30
2018-05-24T02:25:50.067Z,4.60
2018-05-24T02:28:19.034Z,4.10
2018-05-24T02:30:48.818Z,4.15
2018-05-24T02:33:17.694Z,3.72
2018-05-24T02:35:46.648Z,4.18
2018-05-24T02:38:15.257Z,4.03
2018-05-24T02:40:44.076Z,4.05
2018-05-24T02:43:16.279Z,3.95
2018-05-24T02:45:47.829Z,3.90
2018-05-24T02:48:19.291Z,4.12
2018-05-24T02:50:48.045Z,4.57
2018-05-24T02:53:16.747Z,4.37
2018-05-24T02:55:45.507Z,4.90
2018-05-24T03:01:01.943Z,4.60
2018-05-24T03:03:30.778Z,4.78
2018-05-24T03:05:59.494Z,4.87
2018-05-24T03:08:28.132Z,5.00
2018-05-24T03:10:56.845Z,5.07
2018-05-24T03:13:25.488Z,5.45
2018-05-24T03:15:58.533Z,4.55
2018-05-24T03:18:27.194Z,4.62
2018-05-24T03:20:56.819Z,5.03
2018-05-24T03:23:25.517Z,5.07
2018-05-24T03:25:54.517Z,5.00
2018-05-24T03:28:23.191Z,5.20
2018-05-24T03:30:51.855Z,5.10
2018-05-24T03:33:21.434Z,5.12
2018-05-24T03:35:50.097Z,5.05
2018-05-24T03:38:18.999Z,5.10
2018-05-24T03:40:48.894Z,5.05
2018-05-24T03:43:17.516Z,5.30
2018-05-24T03:45:46.542Z,4.95
2018-05-24T03:48:22.953Z,4.82
2018-05-24T03:50:51.922Z,5.60
2018-05-24T03:53:21.558Z,5.30
2018-05-24T03:55:50.194Z,5.03
2018-05-24T03:58:18.856Z,4.82
2018-05-24T04:01:30.220Z,5.22
2018-05-24T04:04:36.295Z,4.78
2018-05-24T04:07:07.483Z,4.90
2018-05-24T04:09:37.140Z,4.60
2018-05-24T04:14:53.838Z,4.97
2018-05-24T04:25:47.512Z,4.70
2018-05-24T04:28:18.159Z,5.05
2018-05-24T04:36:23.985Z,4.53
2018-05-24T04:38:54.596Z,5.10
2018-05-24T04:41:23.260Z,4.68
2018-05-24T04:43:52.037Z,4.65
2018-05-24T04:46:38.849Z,4.75
2018-05-24T04:49:07.836Z,4.30
2018-05-24T04:51:38.596Z,4.70
2018-05-24T04:54:16.054Z,4.72
2018-05-24T04:56:44.721Z,4.65
2018-05-24T04:59:13.383Z,4.87
2018-05-24T05:01:57.977Z,4.57
2018-05-24T05:04:28.826Z,4.18
2018-05-24T05:06:57.475Z,4.28
2018-05-24T05:09:26.095Z,4.55
2018-05-24T05:11:57.744Z,4.18
2018-05-24T05:14:26.399Z,4.20
2018-05-24T05:16:55.055Z,4.20
2018-05-24T05:19:25.768Z,4.05
2018-05-24T05:21:55.903Z,5.30
2018-05-24T05:24:24.551Z,4.57
2018-05-24T05:26:55.200Z,4.47
2018-05-24T05:29:24.823Z,4.35
2018-05-24T05:31:55.568Z,4.53
2018-05-24T05:34:24.267Z,4.80
2018-05-24T05:36:53.517Z,4.62
2018-05-24T05:39:24.874Z,4.80
2018-05-24T05:41:58.118Z,4.55
2018-05-24T05:47:18.930Z,4.80
2018-05-24T05:49:47.641Z,4.93
2018-05-24T05:52:16.524Z,4.75
2018-05-24T05:54:45.214Z,5.05
2018-05-24T05:57:23.974Z,4.50
2018-05-24T05:59:53.661Z,5.30
2018-05-24T06:02:23.288Z,5.20
2018-05-24T06:04:51.953Z,4.95
2018-05-24T06:07:20.605Z,4.40
2018-05-24T06:09:49.530Z,4.82
2018-05-24T06:12:18.244Z,5.20
2018-05-24T06:15:07.966Z,5.30
2018-05-24T06:17:44.867Z,4.75
2018-05-24T06:20:14.662Z,5.05
2018-05-24T06:22:43.688Z,4.97
2018-05-24T06:25:12.687Z,4.95
2018-05-24T06:27:49.916Z,5.30
2018-05-24T06:30:20.228Z,5.10
2018-05-24T06:32:48.861Z,5.65
2018-05-24T06:35:17.652Z,6.10
2018-05-24T06:37:46.286Z,5.15
2018-05-24T06:40:17.229Z,5.15
2018-05-24T06:42:45.874Z,4.72
2018-05-24T06:45:14.952Z,4.37
2018-05-24T06:47:43.720Z,4.50
2018-05-24T06:50:12.563Z,4.78
2018-05-24T06:52:42.301Z,4.28
2018-05-24T06:55:10.979Z,4.60
2018-05-24T06:57:39.610Z,5.35
2018-05-24T07:00:08.256Z,4.57
2018-05-24T07:02:38.049Z,4.65
2018-05-24T07:05:09.371Z,4.90
2018-05-24T07:07:39.935Z,4.95
2018-05-24T07:10:08.584Z,5.15
2018-05-24T07:12:37.339Z,5.30
2018-05-24T07:15:06.006Z,4.85
2018-05-24T07:17:35.122Z,4.25
2018-05-24T07:20:06.277Z,4.25
2018-05-24T07:22:34.896Z,4.97
2018-05-24T07:25:05.805Z,4.60
2018-05-24T07:27:41.978Z,5.20
2018-05-24T07:30:11.082Z,4.68
2018-05-24T07:32:40.400Z,5.10
2018-05-24T07:35:09.141Z,5.18
2018-05-24T07:37:37.775Z,4.62
2018-05-24T07:40:06.435Z,5.32
2018-05-24T07:42:37.740Z,5.30
2018-05-24T07:47:53.960Z,5.10
2018-05-24T07:50:22.857Z,5.03
2018-05-24T07:52:52.416Z,5.45
2018-05-24T07:55:39.400Z,4.97
2018-05-24T07:58:08.033Z,4.97
2018-05-24T08:00:39.139Z,5.70
2018-05-24T08:03:16.029Z,4.90
2018-05-24T08:05:54.643Z,4.87
2018-05-24T08:08:23.272Z,5.40
2018-05-24T08:10:51.951Z,5.10
2018-05-24T08:13:23.163Z,4.97
2018-05-24T08:15:51.812Z,5.30
2018-05-24T08:18:20.534Z,5.15
2018-05-24T08:20:49.676Z,5.25
2018-05-24T08:23:19.193Z,4.97
2018-05-24T08:25:47.887Z,6.00
2018-05-24T08:28:16.532Z,5.53
2018-05-24T08:33:32.770Z,5.10
2018-05-24T08:36:01.496Z,4.55
2018-05-24T08:38:30.114Z,5.57
2018-05-24T08:40:59.288Z,4.50
2018-05-24T08:43:29.104Z,4.82
2018-05-24T08:46:07.935Z,4.97
2018-05-24T08:48:36.550Z,4.57
2018-05-24T08:51:05.926Z,5.20
2018-05-24T08:53:36.485Z,5.07
2018-05-24T08:56:07.188Z,4.90
2018-05-24T08:58:35.816Z,5.05
2018-05-24T09:01:05.382Z,4.57
2018-05-24T09:03:34.059Z,4.50
2018-05-24T09:06:03.788Z,4.60
2018-05-24T09:08:40.772Z,5.00
2018-05-24T09:11:09.725Z,4.53
2018-05-24T09:13:39.417Z,4.80
2018-05-24T09:16:08.289Z,4.65
2018-05-24T09:18:36.943Z,4.30
2018-05-24T09:21:05.886Z,4.72
2018-05-24T09:23:34.538Z,5.10
2018-05-24T09:26:03.606Z,4.62
2018-05-24T09:28:35.080Z,5.15
2018-05-24T09:31:05.395Z,5.28
2018-05-24T09:33:36.731Z,5.72
2018-05-24T09:36:05.368Z,5.05
2018-05-24T09:38:34.046Z,4.95
2018-05-24T09:41:05.568Z,4.40
2018-05-24T09:43:34.944Z,5.00
2018-05-24T09:46:06.306Z,5.07
2018-05-24T09:48:37.236Z,4.45
2018-05-24T09:51:06.237Z,5.30
2018-05-24T09:53:37.284Z,4.90
2018-05-24T09:56:05.901Z,5.00
2018-05-24T09:58:34.982Z,4.50
2018-05-24T10:01:03.654Z,4.43
2018-05-24T10:03:32.333Z,5.07
2018-05-24T10:06:00.997Z,5.10
2018-05-24T10:08:30.254Z,5.28
2018-05-24T10:11:00.202Z,4.55
2018-05-24T10:16:20.453Z,5.03
2018-05-24T10:18:51.703Z,4.82
2018-05-24T10:21:23.504Z,5.20
2018-05-24T10:23:52.973Z,4.57
2018-05-24T10:26:31.676Z,4.55
2018-05-24T10:29:02.055Z,5.80
2018-05-24T10:31:32.678Z,5.37
2018-05-24T10:34:02.339Z,5.55
2018-05-24T10:36:34.209Z,4.90
2018-05-24T10:39:03.214Z,4.70
2018-05-24T10:41:32.090Z,5.10
2018-05-24T10:44:03.162Z,4.87
2018-05-24T10:46:36.251Z,4.70
2018-05-24T10:49:05.405Z,4.90
2018-05-24T10:51:34.463Z,5.37
2018-05-24T10:54:03.600Z,4.93
2018-05-24T10:56:32.345Z,4.90
2018-05-24T10:59:00.949Z,5.05
2018-05-24T11:01:29.869Z,4.75
2018-05-24T11:03:58.892Z,4.87
2018-05-24T11:06:27.718Z,4.90
2018-05-24T11:09:00.317Z,5.22
2018-05-24T11:11:32.992Z,4.60
2018-05-24T11:14:01.625Z,5.20
2018-05-24T11:16:30.293Z,4.55
2018-05-24T11:18:58.910Z,5.40
2018-05-24T11:21:28.076Z,5.30
2018-05-24T11:23:58.201Z,5.30
2018-05-24T11:26:27.252Z,5.87
2018-05-24T11:28:57.024Z,5.40
2018-05-24T11:31:26.586Z,4.75
2018-05-24T11:34:13.457Z,5.30
2018-05-24T11:36:42.637Z,4.90
2018-05-24T11:39:11.263Z,5.37
2018-05-24T11:41:39.934Z,5.60
2018-05-24T11:44:08.710Z,5.25
2018-05-24T11:46:43.166Z,5.40
2018-05-24T11:52:01.297Z,5.15
2018-05-24T11:54:32.188Z,5.32
2018-05-24T11:57:18.913Z,5.10
2018-05-24T11:59:47.814Z,5.37
2018-05-24T12:02:17.140Z,5.25
2018-05-24T12:04:46.167Z,5.50
2018-05-24T12:07:18.895Z,5.07
2018-05-24T12:09:47.748Z,4.95
2018-05-24T12:12:16.877Z,5.18
2018-05-24T12:14:50.252Z,4.62
2018-05-24T12:17:21.584Z,5.28
2018-05-24T12:19:50.794Z,5.20
2018-05-24T12:27:57.695Z,4.57
2018-05-24T12:30:29.159Z,5.32
2018-05-24T12:38:41.201Z,5.37
2018-05-24T12:44:05.591Z,5.90
2018-05-24T12:46:34.746Z,5.97
2018-05-24T12:49:06.706Z,5.85
2018-05-24T12:51:37.896Z,5.68
2018-05-24T12:54:06.967Z,5.40
2018-05-24T12:56:36.741Z,5.30
2018-05-24T12:59:08.851Z,4.65
2018-05-24T13:01:41.758Z,4.78
2018-05-24T13:04:11.973Z,4.60
2018-05-24T13:06:40.602Z,5.03
2018-05-24T13:09:14.549Z,5.45
2018-05-24T13:11:49.765Z,5.28
2018-05-24T13:14:32.459Z,4.97
2018-05-24T13:19:57.936Z,5.45
2018-05-24T13:22:45.897Z,4.60
2018-05-24T13:25:16.898Z,4.97
2018-05-24T13:27:45.794Z,4.87
2018-05-24T13:30:24.927Z,5.20
2018-05-24T13:33:00.832Z,5.80
2018-05-24T13:35:36.619Z,4.95
2018-05-24T13:38:08.616Z,5.07
2018-05-24T13:40:48.316Z,5.28
2018-05-24T13:43:17.302Z,5.45
2018-05-24T13:45:50.791Z,4.78
2018-05-24T13:48:24.079Z,4.97
2018-05-24T13:50:53.271Z,5.37
2018-05-24T13:53:37.103Z,5.30
2018-05-24T13:56:08.711Z,5.55
2018-05-24T13:58:43.490Z,5.30
2018-05-24T14:01:17.772Z,4.78
2018-05-24T14:03:49.956Z,4.80
2018-05-24T14:06:23.008Z,5.00
2018-05-24T14:08:57.241Z,5.10
2018-05-24T14:11:31.714Z,5.47
2018-05-24T14:14:00.569Z,5.35
2018-05-24T14:16:48.388Z,5.43
2018-05-24T14:19:21.676Z,5.40
2018-05-24T14:21:50.693Z,5.62
2018-05-24T14:24:21.138Z,5.68
2018-05-24T14:26:52.546Z,5.82
2018-05-24T14:29:24.153Z,6.25
2018-05-24T14:32:08.999Z,6.20
2018-05-24T14:34:39.250Z,5.62
2018-05-24T14:37:09.591Z,5.15
2018-05-24T14:39:38.856Z,6.05
2018-05-24T14:42:21.627Z,5.18
2018-05-24T14:44:53.172Z,4.47
2018-05-24T14:47:27.558Z,5.70
2018-05-24T14:49:58.044Z,5.55
2018-05-24T14:52:30.217Z,4.97
2018-05-24T14:55:00.474Z,5.22
2018-05-24T14:57:41.685Z,4.78
2018-05-24T15:00:13.564Z,4.68
2018-05-24T15:02:43.994Z,5.57
2018-05-24T15:05:12.888Z,5.15
2018-05-24T15:07:41.816Z,5.40
2018-05-24T15:10:18.803Z,5.35
2018-05-24T15:12:51.796Z,4.90
2018-05-24T15:15:25.175Z,4.75
2018-05-24T15:17:56.893Z,5.80
2018-05-24T15:23:14.889Z,4.75
2018-05-24T15:25:47.869Z,4.60
2018-05-24T15:28:20.610Z,4.90
2018-05-24T15:30:49.536Z,4.85
2018-05-24T15:33:20.035Z,4.50
2018-05-24T15:35:49.027Z,4.37
2018-05-24T15:38:24.269Z,5.70
2018-05-24T15:43:46.484Z,5.07
2018-05-24T15:46:17.110Z,4.37
2018-05-24T15:48:47.463Z,5.18
2018-05-24T15:51:22.365Z,4.65
2018-05-24T15:53:54.466Z,4.45
2018-05-24T15:56:23.598Z,4.72
2018-05-24T15:58:52.617Z,4.22
2018-05-24T16:01:21.954Z,4.68
2018-05-24T16:03:50.919Z,3.85
2018-05-24T16:06:21.447Z,4.62
2018-05-24T16:08:53.425Z,4.62
2018-05-24T16:11:23.667Z,4.20
2018-05-24T16:13:52.629Z,4.20
2018-05-24T16:16:21.589Z,4.10
2018-05-24T16:18:50.522Z,4.12
2018-05-24T16:21:19.961Z,4.40
2018-05-24T16:23:48.956Z,4.60
2018-05-24T16:26:21.144Z,3.95
2018-05-24T16:28:51.409Z,4.10
2018-05-24T16:31:23.044Z,4.00
2018-05-24T16:34:00.096Z,4.37
2018-05-24T16:39:21.744Z,4.10
2018-05-24T16:41:52.068Z,3.65
2018-05-24T16:44:21.403Z,3.72
2018-05-24T16:46:52.129Z,3.62
2018-05-24T16:49:29.783Z,3.95
2018-05-24T16:52:03.120Z,3.25
2018-05-24T16:57:27.824Z,3.58
2018-05-24T17:02:44.420Z,3.65
2018-05-24T17:05:13.574Z,3.90
2018-05-24T17:07:44.879Z,3.70
2018-05-24T17:10:15.275Z,3.87
2018-05-24T17:12:51.091Z,3.55
2018-05-24T17:15:20.138Z,3.60
2018-05-24T17:17:49.142Z,3.35
2018-05-24T17:20:18.714Z,3.50
2018-05-24T17:22:49.180Z,3.55
2018-05-24T17:25:36.928Z,3.25
2018-05-24T17:28:09.101Z,3.00
2018-05-24T17:30:39.383Z,3.28
2018-05-24T17:33:10.980Z,3.20
2018-05-24T17:35:43.742Z,2.80
2018-05-24T17:38:12.705Z,2.90
2018-05-24T17:40:41.701Z,2.70
2018-05-24T17:43:10.612Z,3.20
2018-05-24T17:45:41.355Z,3.03
2018-05-24T17:48:10.273Z,3.12
2018-05-24T17:50:39.339Z,2.87
2018-05-24T17:53:09.153Z,2.78
2018-05-24T17:55:41.560Z,2.65
2018-05-24T17:58:14.003Z,2.60
2018-05-24T18:00:45.378Z,3.00
2018-05-24T18:03:18.442Z,2.50
2018-05-24T18:05:50.151Z,2.80
2018-05-24T18:08:23.457Z,3.08
2018-05-24T18:10:55.711Z,2.67
2018-05-24T18:13:25.186Z,2.62
2018-05-24T18:15:57.864Z,2.90
2018-05-24T18:18:27.350Z,3.25
2018-05-24T18:20:57.794Z,2.95
2018-05-24T18:23:33.762Z,2.67
2018-05-24T18:26:17.736Z,2.95
2018-05-24T18:28:52.777Z,2.67
2018-05-24T18:31:26.776Z,2.90
2018-05-24T18:34:01.808Z,2.90
2018-05-24T18:36:30.804Z,3.17
2018-05-24T18:39:00.354Z,2.78
2018-05-24T18:41:30.696Z,3.15
2018-05-24T18:43:59.706Z,3.33
2018-05-24T18:46:28.389Z,2.62
2018-05-24T18:49:01.406Z,2.85
2018-05-24T18:51:31.180Z,2.25
2018-05-24T18:54:06.115Z,2.87
2018-05-24T18:56:37.296Z,2.78
2018-05-24T18:59:10.771Z,2.90
2018-05-24T19:01:40.066Z,2.40
2018-05-24T19:04:12.532Z,2.70
2018-05-24T19:06:41.545Z,2.50
2018-05-24T19:09:10.447Z,2.50
2018-05-24T19:11:39.666Z,2.53
2018-05-24T19:14:08.608Z,2.47
2018-05-24T19:16:37.776Z,2.35
2018-05-24T19:19:07.188Z,2.33
2018-05-24T19:21:35.843Z,2.50
2018-05-24T19:24:06.626Z,2.53
2018-05-24T19:26:40.862Z,2.67
2018-05-24T19:29:09.535Z,2.40
2018-05-24T19:34:27.767Z,2.58
2018-05-24T19:36:57.739Z,2.35
2018-05-24T19:39:26.430Z,3.08
2018-05-24T19:41:57.326Z,2.78
2018-05-24T19:44:26.072Z,3.05
2018-05-24T19:46:56.256Z,2.72
2018-05-24T19:49:25.415Z,2.90
2018-05-24T19:51:54.407Z,3.50
2018-05-24T19:54:23.079Z,2.87
2018-05-24T19:56:56.967Z,3.12
2018-05-24T19:59:32.211Z,2.72
2018-05-24T20:02:01.955Z,2.78
2018-05-24T20:04:31.084Z,2.83
2018-05-24T20:07:00.093Z,2.78
2018-05-24T20:09:28.750Z,2.80
2018-05-24T20:11:57.738Z,3.42
2018-05-24T20:14:30.083Z,3.28
2018-05-24T20:16:58.985Z,3.30
2018-05-24T20:22:19.927Z,3.15
2018-05-24T20:24:48.587Z,3.22
2018-05-24T20:27:18.773Z,3.17
2018-05-24T20:29:47.588Z,3.33
2018-05-24T20:32:16.273Z,2.40
2018-05-24T20:34:45.304Z,2.50
2018-05-24T20:37:14.710Z,2.78
2018-05-24T20:39:46.120Z,3.05
2018-05-24T20:42:16.277Z,3.03
2018-05-24T20:44:46.894Z,2.92
2018-05-24T20:47:15.939Z,2.67
2018-05-24T20:49:44.792Z,2.60
2018-05-24T20:52:13.437Z,2.85
2018-05-24T20:54:54.812Z,2.60
2018-05-24T20:57:23.990Z,3.90
2018-05-24T20:59:56.067Z,2.80
2018-05-24T21:02:25.021Z,2.95
2018-05-24T21:04:53.700Z,3.67
2018-05-24T21:07:22.326Z,3.10
2018-05-24T21:09:51.217Z,3.42
2018-05-24T21:12:19.980Z,3.65
2018-05-24T21:14:49.167Z,4.85
2018-05-24T21:17:18.415Z,4.65
2018-05-24T21:19:47.147Z,4.18
2018-05-24T21:22:16.195Z,3.97
2018-05-24T21:24:44.963Z,4.20
2018-05-24T21:27:13.754Z,4.65
2018-05-24T21:29:44.937Z,4.00
2018-05-24T21:32:13.554Z,3.80
2018-05-24T21:34:42.789Z,3.72
2018-05-24T21:37:11.588Z,4.18
2018-05-24T21:39:40.232Z,4.40
2018-05-24T21:42:08.896Z,3.87
2018-05-24T21:44:37.537Z,4.70
2018-05-24T21:47:06.561Z,4.20
2018-05-24T21:49:38.487Z,4.85
2018-05-24T21:52:07.577Z,4.55
2018-05-24T21:54:38.401Z,4.55
2018-05-24T21:57:09.398Z,4.10
2018-05-24T21:59:41.731Z,4.20
2018-05-24T22:02:12.379Z,3.87
2018-05-24T22:04:42.285Z,3.60
2018-05-24T22:07:10.922Z,3.60
2018-05-24T22:09:39.901Z,3.75
2018-05-24T22:12:08.942Z,3.80
2018-05-24T22:14:37.569Z,4.05
2018-05-24T22:17:06.264Z,4.85
2018-05-24T22:19:34.867Z,5.30
2018-05-24T22:22:03.524Z,5.00
2018-05-24T22:24:32.135Z,4.78
2018-05-24T22:27:00.785Z,4.93
2018-05-24T22:29:29.438Z,5.75
2018-05-24T22:31:59.579Z,5.12
2018-05-24T22:34:28.216Z,4.65
2018-05-24T22:36:56.875Z,4.68
2018-05-24T22:39:25.552Z,5.00
2018-05-24T22:41:54.175Z,4.47
2018-05-24T22:44:22.797Z,5.30
2018-05-24T22:46:55.461Z,4.62
2018-05-24T22:49:25.626Z,4.68
2018-05-24T22:51:55.959Z,4.10
2018-05-24T22:54:24.851Z,3.62
2018-05-24T22:56:56.232Z,4.12
2018-05-24T22:59:25.220Z,3.87
2018-05-24T23:01:56.797Z,3.53
2018-05-24T23:04:35.143Z,3.70
2018-05-24T23:07:04.590Z,3.70
2018-05-24T23:09:33.995Z,3.67
2018-05-24T23:12:03.104Z,3.53
2018-05-24T23:14:35.270Z,3.78
2018-05-24T23:17:04.443Z,3.80
2018-05-24T23:19:33.610Z,3.37
2018-05-24T23:22:04.168Z,3.50
2018-05-24T23:24:38.343Z,3.80
2018-05-24T23:27:09.237Z,3.12
2018-05-24T23:29:38.140Z,3.62
2018-05-24T23:32:06.799Z,3.65
2018-05-24T23:34:35.753Z,3.53
2018-05-24T23:37:04.868Z,3.70
2018-05-24T23:39:33.989Z,3.03
2018-05-24T23:42:04.109Z,3.00
2018-05-24T23:44:32.800Z,2.90
2018-05-24T23:47:01.433Z,2.87
2018-05-24T23:49:30.189Z,3.70
2018-05-24T23:52:00.709Z,3.05
2018-05-24T23:54:29.360Z,3.28
2018-05-24T23:56:58.212Z,3.15
2018-05-24T23:59:27.864Z,3.30
